Pagrindinis puslapis
METAR-TAF:

METAR-TAF

Oro uostai :

Amsterdamo Schipcholo oro uostas

Amsterdamas, Nyderlandai

platuma: 52-18N, ilguma: 004-46E, Aukštis: -4 m

Dabartinis oras

Ataskaita buvo paskelbta 22 minutes, ne 22:25 UTC
Vėjas 8 kt iš Rytų
Temperatūra 12°C
Drėgmė 82%
Slėgis 1023 hPa
Matomumas 10 km arba daugiau
nėra debesų žemiau 1500 m ir nėra kamuolinių lietaus debesų

METAR: EHAM 202225Z 08008KT CAVOK 12/09 Q1023 NOSIG

Laikas: 00:47 (22:47 UTC)

Prognozė

Ataskaita buvo paskelbta 6 valandos ir 7 minutes, ne 16:40 UTC
Prognozė galioja nuo 20 metu 18 UTC su 21 metu 24 UTC
Vėjas 7 kt iš Rytų
Matomumas 10 km arba daugiau
nėra debesų žemiau 1500 m ir nėra kamuolinių lietaus debesų
Tapsmas
nuo 21 metu 06 UTC su 21 metu 09 UTC
Vėjas 12 kt iš Rytų/Pietryčių

TAF: EHAM 201640Z 2018/2124 08007KT CAVOK BECMG 2106/2109 11012KT

Orai ataskaitas ir orų prognozės (METAR, TAF).

turimą stotys yra geltonos ir raudonos taškus žemėlapyje.

Perkelti pele per norėdami pamatyti stoties vardą.

Tada spustelėkite, norėdami matyti oro stebėjimo ir prognozės.

Norėdami pakeisti žemėlapį: spustelėkite ant žalios mygtukų su juodo kryžiaus žemyn,; žalią mygtuką su brūkšneliu, jei norite nutolinti; arba žalių rodyklių gretimoms žemėlapius.


METAR-TAF: